Edam, Canada
Current Conditions -  °F | °C
As of 6:00 AM on Thursday 30 Oct 2014 (Local Time) from CYQW Reporting Station
Overcast Overcast  
Wind Chill: 21°   Ceiling: 1400
Heat Index: 30°   Visibility: 9mi
Dew Point: 28°   Wind: 10mph
Humidity: 93%   Direction: 100°E
Pressure: 30.39"   Gusts: NA
Location:  53.18°N, 108.77°W
Report Text: CYQW 301200Z AUTO 10009KT 9SM OVC014 M01/M02 A3039 RMK PRESRR SLP319
Loading
Personal Weather Stations






























Interactive Weather Map
Tropical Storm Tracking
New forecast layout! Learn more

10-Day Weather Forecast

Advertisements
Track Severe Weather on mobile